createdAt,value
2023-04-14T00:00:49.513Z,92.27
2023-04-14T00:04:18.077Z,92.74
2023-04-14T00:07:45.154Z,92.93
2023-04-14T00:11:11.967Z,93.59
2023-04-14T00:14:38.974Z,92.90
2023-04-14T00:18:06.342Z,93.70
2023-04-14T00:21:33.560Z,94.29
2023-04-14T00:25:01.323Z,94.43
2023-04-14T00:28:28.369Z,95.25
2023-04-14T00:31:55.368Z,95.06
2023-04-14T00:35:22.232Z,96.75
2023-04-14T00:38:49.389Z,97.10
2023-04-14T00:42:16.366Z,97.12
2023-04-14T00:45:46.199Z,97.05
2023-04-14T00:49:13.502Z,96.86
2023-04-14T00:52:43.812Z,97.18
2023-04-14T00:56:11.137Z,96.94
2023-04-14T00:59:39.385Z,96.85
2023-04-14T01:03:07.181Z,97.75
2023-04-14T01:06:34.884Z,98.06
2023-04-14T01:10:02.149Z,98.57
2023-04-14T01:13:36.717Z,98.69
2023-04-14T01:17:10.412Z,98.41
2023-04-14T01:20:42.017Z,99.51
2023-04-14T01:24:27.384Z,99.26
2023-04-14T01:28:06.548Z,99.47
2023-04-14T01:31:39.719Z,99.14
2023-04-14T01:35:13.266Z,99.40
2023-04-14T01:38:42.049Z,98.71
2023-04-14T01:42:12.434Z,99.27
2023-04-14T01:45:44.115Z,99.81
2023-04-14T01:49:11.556Z,99.88
2023-04-14T01:52:39.573Z,99.03
2023-04-14T01:56:08.963Z,99.63
2023-04-14T01:59:38.244Z,99.81
2023-04-14T02:03:07.316Z,99.74
2023-04-14T02:06:37.026Z,99.38
2023-04-14T02:10:04.665Z,99.28
2023-04-14T02:13:33.007Z,98.90
2023-04-14T02:17:02.918Z,98.69
2023-04-14T02:20:30.906Z,98.32
2023-04-14T02:23:57.841Z,98.26
2023-04-14T02:27:32.026Z,98.70
2023-04-14T02:31:02.566Z,99.17
2023-04-14T02:34:36.133Z,99.06
2023-04-14T02:38:09.442Z,99.15
2023-04-14T02:41:39.732Z,99.35
2023-04-14T02:45:13.334Z,98.91
2023-04-14T02:48:43.102Z,98.86
2023-04-14T02:52:15.446Z,99.11
2023-04-14T02:55:43.432Z,98.41
2023-04-14T02:59:11.375Z,98.35
2023-04-14T03:02:47.261Z,97.89
2023-04-14T03:06:15.947Z,98.02
2023-04-14T03:09:44.618Z,97.49
2023-04-14T03:13:12.890Z,97.58
2023-04-14T03:16:41.257Z,96.80
2023-04-14T03:20:11.033Z,96.53
2023-04-14T03:23:39.559Z,96.25
2023-04-14T03:27:13.267Z,96.42
2023-04-14T03:30:45.327Z,96.22
2023-04-14T03:34:15.384Z,96.00
2023-04-14T03:37:44.238Z,95.97
2023-04-14T03:41:13.157Z,96.32
2023-04-14T03:44:46.188Z,96.06
2023-04-14T03:48:17.196Z,96.25
2023-04-14T03:51:49.694Z,96.53
2023-04-14T03:55:19.820Z,96.44
2023-04-14T03:58:49.363Z,96.27
2023-04-14T04:02:18.111Z,95.77
2023-04-14T04:05:48.793Z,95.72
2023-04-14T04:09:18.046Z,95.43
2023-04-14T04:12:47.963Z,95.28
2023-04-14T04:16:17.077Z,95.18
2023-04-14T04:19:46.218Z,95.05
2023-04-14T04:23:15.910Z,94.87
2023-04-14T04:26:43.222Z,94.76
2023-04-14T04:30:14.304Z,94.69
2023-04-14T04:33:42.285Z,94.74
2023-04-14T04:37:11.189Z,94.63
2023-04-14T04:40:41.471Z,94.55
2023-04-14T04:44:15.030Z,94.53
2023-04-14T04:47:42.111Z,94.46
2023-04-14T04:51:09.191Z,94.55
2023-04-14T04:54:35.977Z,94.52
2023-04-14T04:58:03.018Z,94.48
2023-04-14T05:01:30.249Z,94.32
2023-04-14T05:04:57.524Z,94.40
2023-04-14T05:08:24.636Z,94.32
2023-04-14T05:11:51.570Z,94.27
2023-04-14T05:15:19.218Z,94.29
2023-04-14T05:18:46.307Z,94.57
2023-04-14T05:22:14.135Z,94.61
2023-04-14T05:25:41.416Z,94.65
2023-04-14T05:29:08.463Z,94.87
2023-04-14T05:32:35.412Z,94.70
2023-04-14T05:36:02.380Z,94.80
2023-04-14T05:39:29.369Z,94.90
2023-04-14T05:42:57.122Z,95.11
2023-04-14T05:46:24.202Z,95.18
2023-04-14T05:49:51.347Z,95.27
2023-04-14T05:53:18.426Z,95.41
2023-04-14T05:56:45.694Z,95.55
2023-04-14T06:00:14.593Z,96.03
2023-04-14T06:03:42.388Z,96.26
2023-04-14T06:07:09.743Z,95.96
2023-04-14T06:10:36.656Z,96.19
2023-04-14T06:14:05.460Z,96.07
2023-04-14T06:17:32.754Z,95.94
2023-04-14T06:20:59.902Z,95.98
2023-04-14T06:24:27.134Z,96.15
2023-04-14T06:27:53.944Z,96.14
2023-04-14T06:31:20.887Z,96.16
2023-04-14T06:34:49.829Z,96.64
2023-04-14T06:38:18.120Z,96.50
2023-04-14T06:41:45.183Z,96.56
2023-04-14T06:45:14.744Z,96.19
2023-04-14T06:48:41.751Z,96.30
2023-04-14T06:52:09.197Z,96.15
2023-04-14T06:55:41.641Z,96.53
2023-04-14T06:59:08.561Z,96.69
2023-04-14T07:02:35.559Z,96.51
2023-04-14T07:06:11.530Z,96.37
2023-04-14T07:09:38.502Z,96.86
2023-04-14T07:13:05.606Z,97.35
2023-04-14T07:16:32.540Z,97.41
2023-04-14T07:19:59.542Z,97.39
2023-04-14T07:23:26.720Z,97.47
2023-04-14T07:26:53.660Z,97.63
2023-04-14T07:30:21.422Z,97.33
2023-04-14T07:33:48.361Z,97.04
2023-04-14T07:37:16.553Z,97.09
2023-04-14T07:40:43.278Z,96.96
2023-04-14T07:44:10.452Z,96.50
2023-04-14T07:47:37.527Z,96.56
2023-04-14T07:51:05.565Z,96.16
2023-04-14T07:54:32.976Z,95.75
2023-04-14T07:57:59.953Z,95.52
2023-04-14T08:01:27.130Z,95.19
2023-04-14T08:04:54.652Z,94.80
2023-04-14T08:08:21.632Z,94.19
2023-04-14T08:11:48.486Z,93.96
2023-04-14T08:15:15.619Z,93.73
2023-04-14T08:18:43.496Z,93.55
2023-04-14T08:22:10.373Z,93.68
2023-04-14T08:25:37.352Z,93.64
2023-04-14T08:29:04.508Z,92.82
2023-04-14T08:32:31.741Z,92.51
2023-04-14T08:36:00.359Z,92.47
2023-04-14T08:39:29.231Z,92.31
2023-04-14T08:42:57.639Z,92.25
2023-04-14T08:46:27.625Z,91.93
2023-04-14T08:50:06.110Z,91.15
2023-04-14T08:53:35.052Z,91.01
2023-04-14T08:57:03.001Z,90.81
2023-04-14T09:00:31.031Z,90.65
2023-04-14T09:03:59.286Z,90.50
2023-04-14T09:07:30.230Z,90.10
2023-04-14T09:11:01.926Z,90.14
2023-04-14T09:14:33.132Z,90.57
2023-04-14T09:18:03.666Z,89.89
2023-04-14T09:21:53.578Z,89.41
2023-04-14T09:25:23.519Z,89.70
2023-04-14T09:28:52.547Z,89.30
2023-04-14T09:32:20.960Z,88.67
2023-04-14T09:35:51.886Z,88.01
2023-04-14T09:39:21.792Z,87.66
2023-04-14T09:42:49.036Z,87.83
2023-04-14T09:46:16.730Z,87.31
2023-04-14T09:49:58.621Z,87.38
2023-04-14T09:53:29.938Z,87.56
2023-04-14T09:56:57.709Z,87.28
2023-04-14T10:00:25.777Z,87.29
2023-04-14T10:03:53.087Z,87.41
2023-04-14T10:07:21.520Z,87.85
2023-04-14T10:10:48.687Z,87.46
2023-04-14T10:14:15.638Z,87.02
2023-04-14T10:17:43.521Z,86.68
2023-04-14T10:21:11.492Z,86.38
2023-04-14T10:24:39.358Z,85.93
2023-04-14T10:28:06.716Z,85.33
2023-04-14T10:31:37.373Z,85.33
2023-04-14T10:35:08.818Z,84.53
2023-04-14T10:38:44.002Z,83.00
2023-04-14T10:42:11.213Z,82.48
2023-04-14T10:45:56.229Z,82.19
2023-04-14T10:49:26.914Z,82.29
2023-04-14T10:52:57.808Z,81.83
2023-04-14T10:56:26.437Z,80.95
2023-04-14T10:59:57.406Z,80.57
2023-04-14T11:03:25.652Z,80.67
2023-04-14T11:06:57.188Z,79.95
2023-04-14T11:10:31.540Z,78.87
2023-04-14T11:14:14.966Z,77.31
2023-04-14T11:17:43.303Z,75.12
2023-04-14T11:21:13.462Z,76.49
2023-04-14T11:24:41.500Z,75.35
2023-04-14T11:28:08.851Z,75.16
2023-04-14T11:31:37.904Z,75.73
2023-04-14T11:35:13.913Z,75.63
2023-04-14T11:38:42.881Z,74.88
2023-04-14T11:42:09.230Z,73.56
2023-04-14T11:45:43.356Z,73.39
2023-04-14T11:49:10.909Z,73.69
2023-04-14T11:52:40.271Z,72.85
2023-04-14T11:56:09.591Z,72.89
2023-04-14T11:59:46.067Z,73.17
2023-04-14T12:03:19.552Z,72.53
2023-04-14T12:06:47.386Z,71.66
2023-04-14T12:10:17.844Z,70.64
2023-04-14T12:13:50.800Z,68.25
2023-04-14T12:17:22.315Z,65.56
2023-04-14T12:20:57.628Z,63.74
2023-04-14T12:24:25.203Z,65.01
2023-04-14T12:27:57.123Z,64.88
2023-04-14T12:31:31.257Z,64.38
2023-04-14T12:34:58.821Z,62.06
2023-04-14T12:38:29.849Z,61.46
2023-04-14T12:41:58.930Z,59.12
2023-04-14T12:45:26.937Z,57.70
2023-04-14T12:48:55.077Z,58.27
2023-04-14T12:52:37.041Z,55.27
2023-04-14T12:56:09.442Z,57.09
2023-04-14T12:59:39.620Z,56.72
2023-04-14T13:03:07.188Z,55.95
2023-04-14T13:06:35.031Z,55.14
2023-04-14T13:10:02.162Z,53.97
2023-04-14T13:13:29.364Z,53.79
2023-04-14T13:16:56.299Z,51.99
2023-04-14T13:20:23.603Z,50.77
2023-04-14T13:23:50.999Z,50.81
2023-04-14T13:27:18.731Z,50.08
2023-04-14T13:30:47.218Z,49.93
2023-04-14T13:34:14.426Z,48.34
2023-04-14T13:37:42.671Z,48.71
2023-04-14T13:41:09.611Z,50.32
2023-04-14T13:44:37.774Z,50.51
2023-04-14T13:48:05.032Z,48.78
2023-04-14T13:51:33.467Z,47.36
2023-04-14T13:55:00.750Z,47.86
2023-04-14T13:58:27.928Z,49.29
2023-04-14T14:01:54.959Z,48.18
2023-04-14T14:05:21.951Z,47.37
2023-04-14T14:09:01.463Z,48.45
2023-04-14T14:12:31.000Z,47.46
2023-04-14T14:15:58.093Z,46.40
2023-04-14T14:19:25.966Z,46.71
2023-04-14T14:22:55.696Z,46.55
2023-04-14T14:26:25.893Z,47.69
2023-04-14T14:29:56.118Z,47.06
2023-04-14T14:33:24.918Z,46.85
2023-04-14T14:36:59.405Z,46.47
2023-04-14T14:40:27.442Z,45.70
2023-04-14T14:43:56.026Z,45.89
2023-04-14T14:47:24.387Z,46.63
2023-04-14T14:50:53.369Z,46.30
2023-04-14T14:54:23.614Z,46.40
2023-04-14T14:57:53.825Z,46.84
2023-04-14T15:01:19.575Z,46.97
2023-04-14T15:04:54.261Z,47.46
2023-04-14T15:08:29.389Z,47.56
2023-04-14T15:12:00.184Z,47.32
2023-04-14T15:15:30.234Z,47.72
2023-04-14T15:18:56.564Z,47.91
2023-04-14T15:22:26.036Z,49.24
2023-04-14T15:25:54.888Z,50.20
2023-04-14T15:29:26.925Z,50.89
2023-04-14T15:32:54.771Z,51.18
2023-04-14T15:36:25.530Z,51.05
2023-04-14T15:39:54.751Z,51.89
2023-04-14T15:43:27.884Z,52.32
2023-04-14T15:47:00.478Z,52.43
2023-04-14T15:50:44.349Z,52.46
2023-04-14T15:54:16.506Z,52.78
2023-04-14T15:57:48.129Z,53.19
2023-04-14T16:01:21.246Z,53.70
2023-04-14T16:04:51.197Z,53.93
2023-04-14T16:08:19.424Z,54.20
2023-04-14T16:11:47.402Z,54.55
2023-04-14T16:15:15.990Z,55.03
2023-04-14T16:18:44.396Z,55.66
2023-04-14T16:22:12.883Z,55.80
2023-04-14T16:25:40.662Z,56.30
2023-04-14T16:29:08.984Z,56.38
2023-04-14T16:32:36.516Z,56.56
2023-04-14T16:36:10.324Z,56.83
2023-04-14T16:39:41.703Z,57.07
2023-04-14T16:43:10.199Z,57.64
2023-04-14T16:46:38.166Z,57.94
2023-04-14T16:50:06.420Z,58.33
2023-04-14T16:53:36.723Z,58.66
2023-04-14T16:57:05.488Z,58.99
2023-04-14T17:00:34.266Z,59.23
2023-04-14T17:04:04.245Z,59.52
2023-04-14T17:07:36.024Z,60.01
2023-04-14T17:11:06.799Z,60.13
2023-04-14T17:14:35.688Z,60.32
2023-04-14T17:18:08.750Z,60.60
2023-04-14T17:21:39.988Z,60.59
2023-04-14T17:25:13.755Z,60.90
2023-04-14T17:28:40.490Z,61.05
2023-04-14T17:32:08.358Z,61.29
2023-04-14T17:35:36.626Z,61.53
2023-04-14T17:39:04.417Z,61.94
2023-04-14T17:42:31.804Z,62.14
2023-04-14T17:45:58.808Z,62.28
2023-04-14T17:49:26.128Z,62.49
2023-04-14T17:52:53.586Z,62.63
2023-04-14T17:56:20.471Z,62.77
2023-04-14T17:59:47.736Z,62.88
2023-04-14T18:03:15.250Z,63.02
2023-04-14T18:06:43.196Z,63.23
2023-04-14T18:10:12.114Z,63.26
2023-04-14T18:13:38.989Z,63.32
2023-04-14T18:17:06.622Z,63.38
2023-04-14T18:20:34.901Z,63.49
2023-04-14T18:31:04.175Z,63.76
2023-04-14T18:34:32.053Z,63.76
2023-04-14T18:37:59.045Z,63.77
2023-04-14T18:41:26.946Z,63.81
2023-04-14T18:44:56.406Z,63.90
2023-04-14T18:48:22.685Z,64.05
2023-04-14T18:51:50.421Z,64.19
2023-04-14T18:55:19.546Z,64.24
2023-04-14T18:58:47.473Z,64.25
2023-04-14T19:02:14.945Z,64.22
2023-04-14T19:05:42.720Z,64.16
2023-04-14T19:09:09.458Z,64.22
2023-04-14T19:12:40.790Z,64.31
2023-04-14T19:16:11.955Z,64.36
2023-04-14T19:19:42.753Z,64.42
2023-04-14T19:23:10.708Z,64.34
2023-04-14T19:26:42.443Z,64.53
2023-04-14T19:30:13.258Z,64.54
2023-04-14T19:33:42.880Z,64.57
2023-04-14T19:37:10.998Z,64.63
2023-04-14T19:40:38.311Z,64.54
2023-04-14T19:44:06.153Z,64.52
2023-04-14T19:47:33.117Z,64.28
2023-04-14T19:51:00.094Z,64.02
2023-04-14T19:54:27.774Z,63.87
2023-04-14T19:57:54.697Z,63.81
2023-04-14T20:01:24.057Z,63.91
2023-04-14T20:04:51.354Z,63.89
2023-04-14T20:08:18.335Z,63.96
2023-04-14T20:11:45.809Z,64.02
2023-04-14T20:15:13.621Z,64.15
2023-04-14T20:18:40.615Z,64.33
2023-04-14T20:22:07.684Z,64.43
2023-04-14T20:25:34.931Z,64.54
2023-04-14T20:29:01.766Z,64.66
2023-04-14T20:32:29.412Z,64.81
2023-04-14T20:35:58.037Z,64.97
2023-04-14T20:39:25.367Z,65.25
2023-04-14T20:42:52.488Z,65.39
2023-04-14T20:46:21.026Z,65.66
2023-04-14T20:49:48.128Z,65.97
2023-04-14T20:53:14.962Z,66.11
2023-04-14T20:56:42.261Z,66.31
2023-04-14T21:00:11.945Z,66.87
2023-04-14T21:03:37.337Z,67.01
2023-04-14T21:07:05.074Z,67.50
2023-04-14T21:10:32.138Z,67.77
2023-04-14T21:15:26.689Z,68.27
2023-04-14T21:17:45.889Z,68.65
2023-04-14T21:21:13.721Z,68.93
2023-04-14T21:24:42.870Z,69.46
2023-04-14T21:28:10.389Z,69.69
2023-04-14T21:31:37.728Z,69.86
2023-04-14T21:35:05.034Z,70.15
2023-04-14T21:38:31.928Z,70.43
2023-04-14T21:41:59.073Z,70.51
2023-04-14T21:45:26.812Z,70.52
2023-04-14T21:48:53.784Z,70.56
2023-04-14T21:52:20.843Z,71.32
2023-04-14T21:55:47.813Z,71.56
2023-04-14T21:59:32.235Z,71.96
2023-04-14T22:02:59.502Z,72.25
2023-04-14T22:06:27.799Z,72.74
2023-04-14T22:09:54.954Z,72.72
2023-04-14T22:13:22.139Z,72.90
2023-04-14T22:16:49.421Z,72.60
2023-04-14T22:20:16.656Z,73.11
2023-04-14T22:23:44.760Z,73.41
2023-04-14T22:27:11.684Z,73.47
2023-04-14T22:30:38.969Z,73.96
2023-04-14T22:34:06.622Z,74.22
2023-04-14T22:37:33.428Z,74.43
2023-04-14T22:41:00.702Z,74.50
2023-04-14T22:44:27.643Z,74.53
2023-04-14T22:47:54.604Z,74.41
2023-04-14T22:51:21.764Z,74.49
2023-04-14T22:54:49.161Z,74.86
2023-04-14T22:58:18.462Z,74.76
2023-04-14T23:01:45.312Z,74.87
2023-04-14T23:05:14.346Z,75.39
2023-04-14T23:08:41.348Z,75.15
2023-04-14T23:12:10.455Z,75.13
2023-04-14T23:15:37.432Z,75.72
2023-04-14T23:19:04.676Z,75.71
2023-04-14T23:22:32.877Z,76.00
2023-04-14T23:25:59.794Z,76.08
2023-04-14T23:29:26.704Z,76.04
2023-04-14T23:32:53.743Z,76.26
2023-04-14T23:36:20.717Z,76.40
2023-04-14T23:39:48.108Z,76.46
2023-04-14T23:43:15.731Z,76.59
2023-04-14T23:46:42.755Z,76.24
2023-04-14T23:50:10.792Z,76.41
2023-04-14T23:53:38.139Z,76.81
2023-04-14T23:57:05.425Z,76.91
